Time;durP1;ratioP1;P1;durP2;ratioP2;P2;SDS_P1;SDS_P2;PMS_P1;PMS_P2;Temp;Humidity;BMP_temperature;BMP_pressure;BME280_temperature;BME280_humidity;BME280_pressure;Samples;Min_cycle;Max_cycle;Signal;HPM_P1;HPM_P2
2022/11/02 00:01:49;;;;;;;;;1.67;1.67;;;;;15.11;67.75;101502.31;4976764;28;45334;-71
2022/11/02 00:04:14;;;;;;;;;1.67;1.00;;;;;14.48;68.53;101410.56;4978040;28;54980;-73
2022/11/02 00:06:40;;;;;;;;;3.00;1.33;;;;;14.53;68.47;101433.19;4977959;28;45531;-71
2022/11/02 00:09:05;;;;;;;;;1.00;1.00;;;;;14.93;68.57;101495.28;4975801;28;45339;-71
2022/11/02 00:11:31;;;;;;;;;1.25;1.00;;;;;14.75;68.63;101463.16;4975490;28;45530;-72
2022/11/02 00:13:56;;;;;;;;;3.25;0.75;;;;;14.61;68.86;101465.38;4977600;28;46772;-72
2022/11/02 00:16:22;;;;;;;;;2.00;2.00;;;;;14.12;68.79;101372.25;4977940;28;45203;-72
2022/11/02 00:18:54;;;;;;;;;3.00;3.00;;;;;14.89;69.00;101500.97;4974082;28;45431;-69
2022/11/02 00:21:20;;;;;;;;;2.25;1.25;;;;;14.82;69.03;101507.94;4970374;28;45379;-72
2022/11/02 00:23:47;;;;;;;;;2.25;1.75;;;;;14.81;69.17;101526.78;4978010;28;45495;-71
2022/11/02 00:26:13;;;;;;;;;3.00;1.00;;;;;14.71;68.85;101504.63;4977428;28;45384;-71
2022/11/02 00:28:38;;;;;;;;;7.33;5.33;;;;;14.04;69.01;101410.44;4976973;28;45454;-71
2022/11/02 00:31:04;;;;;;;;;1.00;1.00;;;;;14.69;68.57;101514.66;4976530;28;45349;-72
2022/11/02 00:33:29;;;;;;;;;3.33;2.00;;;;;14.23;68.66;101449.59;4976881;28;48249;-72
2022/11/02 00:35:55;;;;;;;;;0.00;0.00;;;;;14.47;68.46;101505.22;4978800;28;45434;-70
2022/11/02 00:38:20;;;;;;;;;1.50;1.00;;;;;13.81;68.13;101395.78;4978971;28;45370;-72
2022/11/02 00:40:46;;;;;;;;;3.75;1.50;;;;;14.49;68.50;101513.94;4976296;28;45296;-72
2022/11/02 00:43:11;;;;;;;;;0.00;0.00;;;;;14.04;67.83;101439.00;4992325;28;47577;-72
2022/11/02 00:45:36;;;;;;;;;2.25;1.50;;;;;14.26;68.02;101482.22;4992386;28;45356;-71
2022/11/02 00:48:03;;;;;;;;;2.25;0.75;;;;;14.54;67.89;101530.38;4975872;28;45512;-71
2022/11/02 00:50:28;;;;;;;;;0.00;0.00;;;;;14.42;67.65;101510.16;4977978;28;45540;-71
2022/11/02 00:52:53;;;;;;;;;2.25;0.75;;;;;13.20;67.66;101319.72;4977079;28;45787;-71
2022/11/02 00:55:19;;;;;;;;;3.25;1.25;;;;;13.65;67.44;101410.66;4977213;28;58968;-71
2022/11/02 00:57:45;;;;;;;;;1.75;1.75;;;;;14.20;67.26;101506.03;4976211;28;45471;-70
2022/11/02 01:00:11;;;;;;;;;0.75;0.75;;;;;14.52;67.29;101561.78;4977072;28;45290;-73
2022/11/02 01:02:37;;;;;;;;;3.33;1.67;;;;;14.47;67.21;101572.09;4976583;28;46960;-71
2022/11/02 01:05:04;;;;;;;;;1.00;1.00;;;;;14.48;66.92;101568.44;4977602;28;45232;-72
2022/11/02 01:07:29;;;;;;;;;4.00;2.00;;;;;14.41;66.72;101557.44;4976728;28;45544;-71
2022/11/02 01:09:55;;;;;;;;;2.00;0.00;;;;;14.30;66.68;101542.44;4992846;28;45663;-72
2022/11/02 01:12:21;;;;;;;;;0.50;0.25;;;;;14.11;67.02;101520.31;4975119;28;48346;-71
2022/11/02 01:14:47;;;;;;;;;2.00;0.50;;;;;14.32;66.78;101553.84;4976662;28;45461;-72
2022/11/02 01:17:12;;;;;;;;;1.75;0.75;;;;;14.47;66.69;101580.13;4976836;28;45273;-71
2022/11/02 01:19:37;;;;;;;;;3.00;1.25;;;;;13.75;66.61;101455.19;4992947;28;45342;-72
2022/11/02 01:22:02;;;;;;;;;1.00;1.00;;;;;14.22;66.97;101539.69;4980904;28;61948;-71
2022/11/02 01:24:28;;;;;;;;;3.00;1.00;;;;;14.39;67.22;101583.50;4983915;28;45293;-71
2022/11/02 01:26:54;;;;;;;;;1.00;1.00;;;;;14.41;67.34;101581.50;4982402;28;45386;-73
2022/11/02 01:29:19;;;;;;;;;0.75;0.75;;;;;14.26;67.05;101556.28;4982929;28;45524;-70
2022/11/02 01:31:45;;;;;;;;;0.75;0.75;;;;;13.92;67.33;101523.91;4980816;28;47402;-70
2022/11/02 01:34:11;;;;;;;;;0.25;0.25;;;;;14.33;67.44;101594.81;4982254;28;45274;-72
2022/11/02 01:36:36;;;;;;;;;1.00;1.00;;;;;14.35;67.30;101590.16;4983087;28;45476;-70
2022/11/02 01:39:02;;;;;;;;;0.25;0.25;;;;;14.12;67.32;101552.25;4983784;28;45271;-73
2022/11/02 01:41:27;;;;;;;;;0.00;0.00;;;;;14.23;67.30;101578.81;4981652;28;46106;-69
2022/11/02 01:43:55;;;;;;;;;2.25;0.75;;;;;14.18;67.96;101583.72;4982251;28;45212;-70
2022/11/02 01:46:36;;;;;;;;;1.00;1.00;;;;;14.25;67.88;101600.91;4983040;28;45324;-72
2022/11/02 01:49:07;;;;;;;;;4.00;2.25;;;;;13.80;68.22;101522.38;4982438;28;45432;-70
2022/11/02 01:51:37;;;;;;;;;1.33;0.33;;;;;14.21;68.04;101602.16;4980434;28;47006;-70
2022/11/02 01:54:09;;;;;;;;;0.50;0.50;;;;;14.12;68.33;101594.19;4982481;28;45231;-69
2022/11/02 01:56:38;;;;;;;;;3.00;2.00;;;;;14.21;67.93;101606.66;4982641;28;45372;-71
2022/11/02 01:59:11;;;;;;;;;1.75;0.75;;;;;13.88;68.35;101562.59;4982295;28;45595;-71
2022/11/02 02:01:37;;;;;;;;;2.00;1.00;;;;;14.16;68.00;101615.13;4979178;28;46935;-72
2022/11/02 02:04:04;;;;;;;;;3.33;1.33;;;;;13.61;67.89;101528.63;4980732;28;45394;-68
2022/11/02 02:06:29;;;;;;;;;2.00;1.00;;;;;13.91;68.14;101599.75;4982309;28;45354;-72
2022/11/02 02:09:00;;;;;;;;;1.00;0.67;;;;;13.99;68.11;101602.50;4982146;28;45563;-70
2022/11/02 02:11:30;;;;;;;;;2.33;0.67;;;;;14.12;68.21;101623.59;4982551;28;46831;-71
2022/11/02 02:14:04;;;;;;;;;2.75;1.00;;;;;14.09;68.20;101635.44;4980030;28;45337;-72
2022/11/02 02:16:49;;;;;;;;;1.50;1.50;;;;;14.10;68.10;101622.91;4982624;28;45445;-72
2022/11/02 02:19:29;;;;;;;;;1.67;1.67;;;;;14.05;68.49;101622.50;4982495;28;45428;-72
2022/11/02 02:22:13;;;;;;;;;3.67;2.33;;;;;14.06;68.38;101622.34;4981317;28;47345;-70
2022/11/02 02:25:07;;;;;;;;;1.75;1.00;;;;;13.97;68.85;101625.88;4963927;28;45360;-70
2022/11/02 02:27:51;;;;;;;;;2.67;1.33;;;;;13.99;68.73;101635.44;4978786;28;46687;-72
2022/11/02 02:30:17;;;;;;;;;2.25;2.25;;;;;13.78;68.84;101605.38;4981684;28;45854;-70
2022/11/02 02:33:02;;;;;;;;;3.75;1.00;;;;;13.56;68.71;101579.81;4979059;28;47312;-70
2022/11/02 02:35:54;;;;;;;;;1.25;0.50;;;;;13.90;68.46;101636.31;4971520;28;45600;-70
2022/11/02 02:38:32;;;;;;;;;1.50;1.50;;;;;13.83;68.50;101639.72;4977509;28;45383;-70
2022/11/02 02:41:19;;;;;;;;;2.67;1.33;;;;;12.76;68.48;101468.84;4978993;28;45262;-71
2022/11/02 02:43:55;;;;;;;;;1.00;1.00;;;;;13.83;68.66;101653.09;4979702;28;46287;-72
2022/11/02 02:46:25;;;;;;;;;3.00;2.33;;;;;13.82;68.33;101660.25;4977472;28;45723;-71
2022/11/02 02:48:55;;;;;;;;;2.33;0.67;;;;;13.84;68.07;101652.94;4979692;28;45404;-71
2022/11/02 02:51:27;;;;;;;;;0.67;0.67;;;;;13.18;68.25;101539.81;4978880;28;45562;-71
2022/11/02 02:54:01;;;;;;;;;3.50;0.75;;;;;13.73;68.01;101633.53;4978758;28;46357;-71
2022/11/02 02:56:33;;;;;;;;;5.00;1.67;;;;;13.78;68.19;101649.97;4977618;28;45639;-72
2022/11/02 02:59:37;;;;;;;;;2.67;1.33;;;;;13.49;68.45;101626.81;4979059;28;45453;-71
2022/11/02 03:02:07;;;;;;;;;2.67;1.67;;;;;12.70;68.32;101493.41;4973285;28;45459;-72
2022/11/02 03:04:32;;;;;;;;;6.00;3.67;;;;;13.65;68.46;101656.47;4979420;28;46089;-71
2022/11/02 03:07:00;;;;;;;;;3.00;1.33;;;;;13.64;68.29;101644.09;4978616;28;45456;-71
2022/11/02 03:09:47;;;;;;;;;3.00;2.00;;;;;13.68;68.29;101653.53;4977818;28;45341;-72
2022/11/02 03:12:44;;;;;;;;;3.33;2.00;;;;;12.92;68.57;101536.81;4978153;28;45507;-71
2022/11/02 03:15:15;;;;;;;;;3.67;2.00;;;;;13.60;68.45;101672.06;4972291;28;45789;-71
2022/11/02 03:18:06;;;;;;;;;6.67;2.00;;;;;13.58;68.73;101667.84;4976599;28;46735;-70
2022/11/02 03:20:37;;;;;;;;;3.67;3.33;;;;;13.60;68.74;101661.38;4970353;28;45481;-71
2022/11/02 03:23:33;;;;;;;;;6.00;1.75;;;;;13.62;68.76;101670.13;4978926;28;45836;-71
2022/11/02 03:26:17;;;;;;;;;3.00;2.00;;;;;13.38;68.94;101633.13;4975646;28;46593;-69
2022/11/02 03:28:57;;;;;;;;;8.33;5.00;;;;;13.57;69.19;101667.00;4975359;28;45584;-72
2022/11/02 03:31:37;;;;;;;;;3.00;2.00;;;;;13.59;68.80;101665.03;4974858;28;45345;-71
2022/11/02 03:34:16;;;;;;;;;4.00;1.67;;;;;13.57;69.26;101677.69;4963048;28;45279;-73
2022/11/02 03:36:57;;;;;;;;;3.00;3.00;;;;;12.23;69.06;101459.53;4992347;28;48649;-70
2022/11/02 03:39:57;;;;;;;;;4.00;1.33;;;;;13.52;69.20;101681.78;4977252;28;45508;-70
2022/11/02 03:42:29;;;;;;;;;4.67;3.33;;;;;13.37;69.12;101665.31;4970842;28;45516;-71
2022/11/02 03:45:03;;;;;;;;;3.50;1.25;;;;;13.39;69.19;101668.69;4977338;28;45553;-70
2022/11/02 03:47:32;;;;;;;;;2.00;2.00;;;;;13.36;69.03;101680.50;4977258;28;47145;-71
2022/11/02 03:50:01;;;;;;;;;6.75;3.00;;;;;13.13;69.51;101643.47;4976351;28;45289;-70
2022/11/02 03:52:30;;;;;;;;;6.00;3.33;;;;;13.35;69.47;101691.31;4977032;28;45474;-70
2022/11/02 03:55:07;;;;;;;;;5.67;1.00;;;;;13.06;69.43;101641.38;4976665;28;45413;-70
2022/11/02 03:57:52;;;;;;;;;2.33;1.00;;;;;13.42;69.71;101705.00;4974780;28;47672;-71
2022/11/02 04:00:21;;;;;;;;;4.33;2.67;;;;;13.41;69.49;101706.78;4975555;28;45434;-72
2022/11/02 04:02:51;;;;;;;;;4.00;2.67;;;;;13.18;69.40;101682.16;4977150;28;45444;-72
2022/11/02 04:05:17;;;;;;;;;4.33;3.00;;;;;13.27;69.38;101696.53;4978094;28;45543;-70
2022/11/02 04:10:32;;;;;;;;;4.67;2.67;;;;;13.37;69.16;101732.09;4977796;28;45264;-70
2022/11/02 04:15:42;;;;;;;;;4.33;3.33;;;;;13.34;69.31;101737.72;4978189;28;45263;-72
2022/11/02 04:20:51;;;;;;;;;5.33;2.33;;;;;13.32;69.30;101737.00;4977143;28;45457;-71
2022/11/02 04:26:01;;;;;;;;;5.67;2.67;;;;;13.23;69.60;101732.50;4970266;28;45623;-69
2022/11/02 04:28:27;;;;;;;;;3.67;2.67;;;;;13.01;68.86;101713.03;4975223;28;45491;-71
2022/11/02 04:30:52;;;;;;;;;5.00;3.00;;;;;13.21;69.23;101747.78;4976727;28;45327;-71
2022/11/02 04:33:33;;;;;;;;;2.00;2.00;;;;;13.30;68.86;101755.00;4978098;28;45329;-71
2022/11/02 04:36:03;;;;;;;;;3.67;2.00;;;;;13.23;68.38;101744.03;4975177;28;45508;-70
2022/11/02 04:38:41;;;;;;;;;3.67;3.00;;;;;13.18;68.18;101729.38;4976903;28;47188;-71
2022/11/02 04:43:52;;;;;;;;;3.33;3.33;;;;;12.92;68.43;101713.81;4976541;28;45721;-71
2022/11/02 04:46:18;;;;;;;;;8.33;6.00;;;;;13.34;67.53;101777.78;4975526;28;45619;-71
2022/11/02 04:48:43;;;;;;;;;7.75;3.25;;;;;12.54;67.97;101650.50;4975656;28;46823;-70
2022/11/02 04:51:09;;;;;;;;;3.33;3.00;;;;;13.24;68.12;101766.25;4977316;28;45493;-70
2022/11/02 04:53:34;;;;;;;;;2.33;2.00;;;;;13.13;68.18;101755.63;4977069;28;45481;-71
2022/11/02 04:55:59;;;;;;;;;7.00;4.00;;;;;12.81;67.85;101695.22;4975658;28;46421;-73
2022/11/02 04:58:25;;;;;;;;;6.33;3.33;;;;;13.26;68.04;101780.28;4979061;28;46402;-70
2022/11/02 05:00:50;;;;;;;;;4.33;2.00;;;;;13.30;67.72;101781.72;4975402;28;45251;-70
2022/11/02 05:03:16;;;;;;;;;4.00;2.00;;;;;13.32;67.78;101787.75;4976667;28;49505;-70
2022/11/02 05:05:41;;;;;;;;;4.33;2.67;;;;;13.34;67.27;101791.97;4992391;28;45458;-70
2022/11/02 05:08:06;;;;;;;;;7.67;4.00;;;;;13.33;67.67;101789.44;4976679;28;46443;-70
2022/11/02 05:10:32;;;;;;;;;3.67;2.67;;;;;13.36;67.64;101806.03;4992073;28;45575;-71
2022/11/02 05:12:58;;;;;;;;;11.33;8.00;;;;;13.39;67.62;101796.91;4977797;28;45572;-72
2022/11/02 05:15:23;;;;;;;;;8.33;3.67;;;;;13.41;67.69;101810.97;4976062;28;45506;-71
2022/11/02 05:17:49;;;;;;;;;3.67;3.67;;;;;13.28;67.66;101791.69;4976221;28;45834;-72
2022/11/02 05:20:14;;;;;;;;;3.00;2.00;;;;;13.18;67.33;101769.44;4975574;28;45617;-74
2022/11/02 05:22:43;;;;;;;;;5.67;3.33;;;;;13.40;67.30;101807.44;4975715;28;45780;-73
2022/11/02 05:25:09;;;;;;;;;5.00;4.00;;;;;12.04;67.18;101583.78;4991913;28;45691;-70
2022/11/02 05:27:35;;;;;;;;;7.33;4.33;;;;;12.82;67.45;101718.31;4975322;28;45428;-71
2022/11/02 05:30:00;;;;;;;;;3.00;3.00;;;;;13.31;67.65;101816.28;4976051;28;46053;-70
2022/11/02 05:32:26;;;;;;;;;4.33;2.00;;;;;13.28;67.69;101815.72;4975072;28;45550;-70
2022/11/02 05:34:51;;;;;;;;;3.00;3.00;;;;;13.32;67.94;101822.47;4978433;28;45268;-72
2022/11/02 05:37:17;;;;;;;;;5.00;3.00;;;;;13.27;68.34;101830.06;4975267;28;66458;-70
2022/11/02 05:39:42;;;;;;;;;5.00;2.00;;;;;13.24;67.94;101820.50;4975350;28;45184;-70
2022/11/02 05:42:07;;;;;;;;;5.67;3.67;;;;;13.24;68.25;101833.84;4976686;28;45244;-69
2022/11/02 05:44:33;;;;;;;;;5.67;3.00;;;;;13.22;68.48;101845.66;4976210;28;46995;-70
2022/11/02 05:46:58;;;;;;;;;3.00;2.33;;;;;13.15;68.76;101823.06;4975708;28;46171;-72
2022/11/02 05:49:23;;;;;;;;;2.33;2.33;;;;;13.20;68.55;101834.22;4977002;28;45232;-70
2022/11/02 05:51:49;;;;;;;;;4.67;4.00;;;;;13.01;68.29;101809.13;4975813;28;46102;-70
2022/11/02 05:54:14;;;;;;;;;4.00;3.00;;;;;13.16;68.78;101836.28;4975917;28;45294;-72
2022/11/02 05:56:40;;;;;;;;;4.00;3.33;;;;;12.61;68.55;101754.81;4990393;28;47812;-71
2022/11/02 05:59:05;;;;;;;;;3.33;1.33;;;;;12.94;68.37;101807.09;4974143;28;45625;-69
2022/11/02 06:01:31;;;;;;;;;3.67;2.00;;;;;13.09;68.79;101838.66;4975533;28;45575;-68
2022/11/02 06:03:56;;;;;;;;;4.00;2.67;;;;;13.09;69.02;101836.00;4975828;28;45462;-71
2022/11/02 06:06:21;;;;;;;;;5.00;2.33;;;;;12.97;68.64;101826.38;4975508;28;46228;-70
2022/11/02 06:08:47;;;;;;;;;5.00;3.00;;;;;12.95;69.57;101817.66;4977081;28;45428;-70
2022/11/02 06:11:13;;;;;;;;;6.33;4.00;;;;;12.61;69.23;101769.00;4979813;28;45449;-71
2022/11/02 06:13:40;;;;;;;;;6.00;4.00;;;;;12.67;69.15;101789.00;4979035;28;45355;-71
2022/11/02 06:16:08;;;;;;;;;2.00;2.00;;;;;12.94;69.40;101818.63;4993892;28;45627;-69
2022/11/02 06:18:34;;;;;;;;;9.33;4.33;;;;;12.91;69.81;101831.41;4979732;28;45365;-70
2022/11/02 06:21:00;;;;;;;;;4.00;3.33;;;;;12.22;69.35;101705.78;4979623;28;45556;-74
2022/11/02 06:23:25;;;;;;;;;6.00;5.33;;;;;12.59;69.71;101778.97;4978515;28;45412;-71
2022/11/02 06:25:56;;;;;;;;;6.00;4.00;;;;;13.00;70.13;101859.94;4977162;28;47614;-70
2022/11/02 06:28:22;;;;;;;;;11.33;7.67;;;;;12.66;69.40;101798.81;4978467;28;45649;-72
2022/11/02 06:30:48;;;;;;;;;3.33;2.00;;;;;13.03;69.82;101860.56;4977914;28;45471;-73
2022/11/02 06:33:14;;;;;;;;;2.00;2.00;;;;;13.01;69.83;101881.22;4979645;28;45426;-71
2022/11/02 06:35:42;;;;;;;;;9.00;4.33;;;;;13.03;69.67;101871.25;4978068;28;47013;-72
2022/11/02 06:38:08;;;;;;;;;5.33;4.33;;;;;13.03;69.82;101865.91;4979252;28;45635;-73
2022/11/02 06:40:33;;;;;;;;;6.00;3.67;;;;;12.99;69.96;101864.44;4979604;28;45456;-72
2022/11/02 06:42:58;;;;;;;;;6.67;4.00;;;;;12.50;69.66;101785.09;4981172;28;45394;-74
2022/11/02 06:45:24;;;;;;;;;15.00;9.33;;;;;13.00;69.89;101866.13;4979114;28;45889;-70
2022/11/02 06:47:50;;;;;;;;;12.67;10.33;;;;;13.01;69.91;101870.53;4993293;28;45635;-71
2022/11/02 06:50:15;;;;;;;;;4.67;4.00;;;;;12.88;69.88;101843.19;4978566;28;45160;-70
2022/11/02 06:52:43;;;;;;;;;6.00;5.33;;;;;13.02;69.88;101874.88;4979138;28;45278;-71
2022/11/02 06:55:09;;;;;;;;;3.67;3.67;;;;;12.73;69.38;101831.16;4977788;28;46100;-70
2022/11/02 06:57:38;;;;;;;;;9.33;5.00;;;;;12.91;69.45;101876.78;4992345;28;45672;-71
2022/11/02 07:00:05;;;;;;;;;3.67;2.67;;;;;13.03;69.63;101894.41;4979787;28;45329;-71
2022/11/02 07:02:31;;;;;;;;;6.33;2.67;;;;;13.05;69.35;101906.66;4979269;28;45639;-71
2022/11/02 07:04:56;;;;;;;;;6.67;4.33;;;;;12.42;69.33;101799.09;4996392;28;47277;-70
2022/11/02 07:07:22;;;;;;;;;11.00;6.67;;;;;12.48;69.55;101801.25;4978454;28;45292;-72
2022/11/02 07:09:47;;;;;;;;;3.33;3.00;;;;;12.26;69.53;101758.72;4979567;28;45547;-73
2022/11/02 07:12:12;;;;;;;;;7.00;3.67;;;;;13.12;69.22;101900.78;4977125;28;45722;-71
2022/11/02 07:14:38;;;;;;;;;5.33;5.00;;;;;12.76;69.24;101841.56;4977534;28;45677;-71
2022/11/02 07:17:03;;;;;;;;;5.33;4.33;;;;;13.02;69.30;101885.56;4978500;28;51039;-71
2022/11/02 07:19:29;;;;;;;;;7.00;6.00;;;;;12.99;69.20;101869.78;4978043;28;45378;-71
2022/11/02 07:21:54;;;;;;;;;6.00;4.00;;;;;11.97;68.78;101704.34;4979973;28;45488;-71
2022/11/02 07:24:22;;;;;;;;;6.33;4.67;;;;;13.06;69.01;101873.63;4978151;28;45888;-71
2022/11/02 07:26:51;;;;;;;;;7.67;4.00;;;;;13.18;68.93;101908.28;4979176;28;45304;-72
2022/11/02 07:29:16;;;;;;;;;4.33;4.00;;;;;13.04;68.96;101888.09;4995052;28;45195;-72
2022/11/02 07:31:42;;;;;;;;;8.67;6.33;;;;;13.23;68.88;101922.09;4983050;28;45668;-73
2022/11/02 07:34:07;;;;;;;;;6.67;3.33;;;;;13.25;69.05;101926.34;4995306;28;48678;-72
2022/11/02 07:36:33;;;;;;;;;7.00;4.67;;;;;13.28;68.78;101919.88;4978999;28;45470;-71
2022/11/02 07:38:58;;;;;;;;;9.33;6.67;;;;;12.58;68.90;101801.28;4976882;28;45616;-69
2022/11/02 07:41:23;;;;;;;;;7.00;4.67;;;;;13.33;68.94;101915.81;4993387;28;45440;-75
2022/11/02 07:43:49;;;;;;;;;6.00;6.00;;;;;13.09;68.26;101860.03;4978259;28;45966;-74
2022/11/02 07:46:14;;;;;;;;;6.00;5.00;;;;;13.39;68.37;101919.78;4977627;28;45586;-73
2022/11/02 07:48:39;;;;;;;;;5.67;3.00;;;;;13.36;68.71;101914.69;4976548;28;45998;-71
2022/11/02 07:51:06;;;;;;;;;5.67;3.00;;;;;13.26;68.95;101911.16;4978680;28;45384;-73
2022/11/02 07:53:32;;;;;;;;;5.67;5.00;;;;;13.22;68.33;101881.19;4965416;28;46475;-70
2022/11/02 07:56:01;;;;;;;;;12.00;9.00;;;;;13.52;68.52;101925.75;4959623;28;45354;-69
2022/11/02 07:58:26;;;;;;;;;11.33;5.00;;;;;13.73;68.00;101924.84;4960004;28;45539;-70
2022/11/02 08:00:53;;;;;;;;;7.67;5.33;;;;;14.02;67.33;101923.09;4959922;28;45255;-72
2022/11/02 08:03:19;;;;;;;;;1.33;0.00;;;;;14.11;66.16;101870.59;4973702;28;45701;-71
2022/11/02 08:05:44;;;;;;;;;4.33;3.33;;;;;14.80;64.26;101881.16;4977957;28;45309;-69
2022/11/02 08:08:15;;;;;;;;;7.33;7.33;;;;;15.29;61.85;101797.00;4978819;28;45385;-70
2022/11/02 08:10:41;;;;;;;;;5.00;4.00;;;;;15.56;59.66;101782.72;4977970;28;45386;-70
2022/11/02 08:13:08;;;;;;;;;3.00;3.00;;;;;16.46;58.28;101842.63;4969056;28;45521;-74
2022/11/02 08:15:33;;;;;;;;;7.67;3.67;;;;;17.03;56.88;101892.25;4968341;28;45452;-70
2022/11/02 08:18:13;;;;;;;;;5.67;3.33;;;;;17.21;56.93;101927.94;4978059;28;45317;-73
2022/11/02 08:20:38;;;;;;;;;2.33;2.33;;;;;17.48;56.75;101886.63;4991010;28;46045;-69
2022/11/02 08:23:06;;;;;;;;;9.67;4.67;;;;;18.12;54.83;101889.69;4977083;28;45753;-71
2022/11/02 08:25:32;;;;;;;;;6.50;3.50;;;;;18.85;52.79;101905.94;4977176;28;45428;-68
2022/11/02 08:27:59;;;;;;;;;5.33;4.67;;;;;19.25;51.39;101944.63;4977631;28;45298;-70
2022/11/02 08:30:28;;;;;;;;;3.00;3.00;;;;;19.04;51.65;101929.84;4975274;28;45513;-72
2022/11/02 08:32:54;;;;;;;;;5.00;3.67;;;;;18.49;52.38;101895.47;4977680;28;45852;-68
2022/11/02 08:35:20;;;;;;;;;4.67;4.67;;;;;18.30;52.81;101893.09;4978315;28;45663;-71
2022/11/02 08:37:53;;;;;;;;;5.00;4.00;;;;;18.47;53.61;101915.50;4975567;28;45436;-72
2022/11/02 08:40:19;;;;;;;;;5.75;3.75;;;;;18.48;53.16;101914.50;4971512;28;45730;-72
2022/11/02 08:42:45;;;;;;;;;6.00;5.00;;;;;18.80;52.36;101927.13;4977218;28;46555;-71
2022/11/02 08:45:10;;;;;;;;;3.00;3.00;;;;;19.54;50.49;101930.56;4976668;28;45357;-71
2022/11/02 08:47:40;;;;;;;;;4.00;4.00;;;;;20.09;49.40;101930.50;4977685;28;46431;-71
2022/11/02 08:50:05;;;;;;;;;6.00;4.67;;;;;19.47;48.31;101789.31;4993240;28;45327;-71
2022/11/02 08:52:35;;;;;;;;;2.00;2.00;;;;;21.00;47.48;101931.50;4992444;28;46356;-75
2022/11/02 08:55:00;;;;;;;;;8.67;4.00;;;;;22.06;44.75;101921.19;4973041;28;45481;-71
2022/11/02 08:57:26;;;;;;;;;4.00;3.25;;;;;22.59;42.73;101926.31;4978096;28;45617;-70
2022/11/02 08:59:51;;;;;;;;;5.25;4.00;;;;;22.97;41.83;101916.03;4978480;28;45206;-71
2022/11/02 09:02:16;;;;;;;;;8.00;7.75;;;;;23.63;41.18;101938.22;4978180;28;46042;-73
2022/11/02 09:04:42;;;;;;;;;13.33;10.67;;;;;23.86;40.46;101922.44;4990713;28;58765;-72
2022/11/02 09:07:07;;;;;;;;;6.00;5.50;;;;;24.08;39.95;101928.56;4976627;28;45240;-69
2022/11/02 09:09:32;;;;;;;;;3.75;3.75;;;;;23.85;39.90;101928.06;4977965;28;45298;-74
2022/11/02 09:11:58;;;;;;;;;4.25;3.75;;;;;23.24;40.37;101926.03;4977657;28;46251;-73
2022/11/02 09:14:23;;;;;;;;;6.25;4.00;;;;;22.40;41.85;101841.06;4977800;28;45323;-71
2022/11/02 09:16:48;;;;;;;;;5.00;1.50;;;;;22.46;43.12;101927.03;4975507;28;45481;-72
2022/11/02 09:19:14;;;;;;;;;4.00;3.00;;;;;22.03;44.04;101921.56;4977668;28;45437;-74
2022/11/02 09:21:39;;;;;;;;;5.00;4.00;;;;;21.80;44.24;101915.41;4975636;28;46450;-72
2022/11/02 09:24:05;;;;;;;;;5.33;4.00;;;;;21.48;45.02;101912.09;4976619;28;45540;-73
2022/11/02 09:26:30;;;;;;;;;4.67;4.67;;;;;21.13;45.41;101896.56;4976107;28;45480;-70
2022/11/02 09:28:55;;;;;;;;;6.00;3.25;;;;;20.69;46.21;101904.63;4975570;28;45405;-72
2022/11/02 09:31:21;;;;;;;;;5.50;3.00;;;;;19.62;47.42;101825.31;4974865;28;46375;-73
2022/11/02 09:33:46;;;;;;;;;5.00;3.25;;;;;19.43;48.61;101883.22;4974895;28;45788;-73
2022/11/02 09:36:11;;;;;;;;;4.00;3.00;;;;;19.24;49.91;101926.75;4975946;28;45310;-73
2022/11/02 09:38:37;;;;;;;;;5.75;5.50;;;;;18.79;50.25;101890.44;4979242;28;45365;-76
2022/11/02 09:41:26;;;;;;;;;4.50;4.00;;;;;18.58;51.24;101909.75;4988187;28;48297;-74
2022/11/02 09:43:59;;;;;;;;;3.00;3.00;;;;;18.23;52.27;101903.69;4971272;28;45266;-76
2022/11/02 09:46:29;;;;;;;;;2.33;2.00;;;;;17.73;53.10;101882.19;4981454;28;46080;-72
2022/11/02 09:48:59;;;;;;;;;4.00;2.75;;;;;17.56;53.80;101899.25;4980687;28;45187;-72
2022/11/02 09:51:37;;;;;;;;;3.00;3.00;;;;;17.31;54.24;101871.41;4980313;28;45821;-72
2022/11/02 09:54:32;;;;;;;;;6.00;2.67;;;;;16.64;55.53;101806.69;4981349;28;45472;-73
2022/11/02 09:57:03;;;;;;;;;6.00;3.00;;;;;15.83;55.42;101698.75;4980926;28;46855;-73
2022/11/02 09:59:28;;;;;;;;;7.00;3.00;;;;;16.89;56.37;101900.88;4976335;28;45420;-74
2022/11/02 10:02:04;;;;;;;;;6.00;4.00;;;;;16.63;56.87;101871.28;4977907;28;47846;-72
2022/11/02 10:04:51;;;;;;;;;3.33;2.67;;;;;16.76;58.61;101912.03;4981837;28;45415;-72
2022/11/02 10:07:28;;;;;;;;;4.33;3.33;;;;;16.46;57.67;101883.72;4979745;28;45266;-72
2022/11/02 10:09:58;;;;;;;;;4.67;3.67;;;;;16.42;57.75;101882.34;4971916;28;45440;-75
2022/11/02 10:12:32;;;;;;;;;5.00;3.33;;;;;16.50;58.11;101911.94;4994798;28;47777;-73
2022/11/02 10:15:19;;;;;;;;;5.67;4.00;;;;;16.43;58.17;101916.25;4977662;28;45559;-71
2022/11/02 10:17:49;;;;;;;;;4.00;3.33;;;;;16.23;58.37;101893.25;4979351;28;45449;-72
2022/11/02 10:20:28;;;;;;;;;10.00;5.67;;;;;16.24;58.44;101894.94;4993533;28;45404;-73
2022/11/02 10:23:02;;;;;;;;;4.33;3.00;;;;;16.26;58.27;101898.31;4977194;28;45485;-82
2022/11/02 10:25:27;;;;;;;;;8.00;5.00;;;;;16.11;58.54;101879.19;4979519;28;45493;-78
2022/11/02 10:28:03;;;;;;;;;3.50;2.00;;;;;16.19;58.58;101895.38;4992844;28;45520;-69
2022/11/02 10:30:29;;;;;;;;;2.67;2.67;;;;;16.28;58.97;101912.41;4979216;28;45596;-71
2022/11/02 10:32:55;;;;;;;;;5.67;4.00;;;;;15.31;58.80;101757.50;4979933;28;46390;-72
2022/11/02 10:35:39;;;;;;;;;3.33;3.00;;;;;16.07;58.88;101902.81;4980838;28;45285;-72
2022/11/02 10:38:19;;;;;;;;;4.00;4.00;;;;;15.82;58.80;101855.28;4980811;28;45317;-73
2022/11/02 10:40:59;;;;;;;;;1.33;1.33;;;;;15.97;59.17;101899.34;4979930;28;45274;-72
2022/11/02 10:43:43;;;;;;;;;5.00;3.00;;;;;15.85;59.50;101897.88;4979701;28;46590;-72
2022/11/02 10:46:32;;;;;;;;;6.00;3.33;;;;;15.17;59.27;101774.91;4994663;28;45464;-72
2022/11/02 10:49:40;;;;;;;;;8.00;3.00;;;;;16.02;59.00;101906.94;4978818;28;45310;-75
2022/11/02 10:52:05;;;;;;;;;5.00;3.33;;;;;16.00;59.15;101888.28;4980467;28;45450;-72
2022/11/02 10:54:32;;;;;;;;;2.67;2.67;;;;;15.27;59.26;101782.91;4994089;28;48744;-72
2022/11/02 10:56:58;;;;;;;;;6.67;5.00;;;;;16.00;59.38;101893.66;4994693;28;45596;-73
2022/11/02 10:59:24;;;;;;;;;9.33;5.67;;;;;15.90;59.57;101886.69;4979273;28;45361;-72
2022/11/02 11:01:55;;;;;;;;;5.67;3.00;;;;;16.04;59.16;101895.06;4979983;28;45310;-72
2022/11/02 11:04:24;;;;;;;;;5.33;3.67;;;;;16.09;58.64;101894.59;4979762;28;45813;-71
2022/11/02 11:06:50;;;;;;;;;7.67;4.00;;;;;16.05;58.99;101893.22;4979229;28;45682;-72
2022/11/02 11:09:19;;;;;;;;;3.67;3.00;;;;;15.20;58.62;101749.66;4978898;28;45465;-72
2022/11/02 11:12:12;;;;;;;;;4.33;3.00;;;;;16.12;58.46;101886.25;4980080;28;45480;-72
2022/11/02 11:14:54;;;;;;;;;4.67;4.00;;;;;16.11;58.28;101888.09;4979343;28;46973;-73
2022/11/02 11:17:27;;;;;;;;;3.33;2.33;;;;;16.07;58.39;101875.97;4978442;28;45346;-71
2022/11/02 11:19:57;;;;;;;;;5.00;3.67;;;;;15.85;58.49;101825.47;4979567;28;45426;-75
2022/11/02 11:22:30;;;;;;;;;5.67;4.00;;;;;16.19;58.43;101870.38;4978087;28;45629;-73
2022/11/02 11:25:10;;;;;;;;;5.00;4.00;;;;;16.25;58.43;101876.00;4978513;28;48802;-72
2022/11/02 11:27:57;;;;;;;;;2.33;2.33;;;;;15.86;58.64;101796.81;4977891;28;45528;-71
2022/11/02 11:30:25;;;;;;;;;4.67;4.00;;;;;16.40;58.46;101877.13;4979559;28;45350;-71
2022/11/02 11:32:50;;;;;;;;;3.67;3.67;;;;;16.12;58.17;101822.72;4979752;28;45212;-73
2022/11/02 11:35:18;;;;;;;;;4.67;4.00;;;;;16.20;57.96;101810.34;4979249;28;45307;-73
2022/11/02 11:37:49;;;;;;;;;6.67;6.00;;;;;16.03;57.32;101771.84;4979572;28;45479;-75
2022/11/02 11:40:20;;;;;;;;;2.67;1.00;;;;;16.65;57.51;101870.13;4980165;28;45452;-71
2022/11/02 11:42:49;;;;;;;;;3.00;2.00;;;;;16.70;57.74;101869.69;4997034;28;45507;-70
2022/11/02 11:45:22;;;;;;;;;8.67;4.33;;;;;16.73;57.95;101859.47;4981080;28;46236;-72
2022/11/02 11:48:11;;;;;;;;;8.00;5.00;;;;;16.76;57.51;101852.94;4979022;28;45411;-72
2022/11/02 11:50:45;;;;;;;;;6.67;3.00;;;;;16.60;57.94;101824.09;4973388;28;45318;-73